Time;durP1;ratioP1;P1;durP2;ratioP2;P2;SDS_P1;SDS_P2;PMS_P1;PMS_P2;Temp;Humidity;BMP_temperature;BMP_pressure;BME280_temperature;BME280_humidity;BME280_pressure;Samples;Min_cycle;Max_cycle;Signal;HPM_P1;HPM_P2
2022/10/27 00:02:19;;;;;;;3.38;1.98;;;17.00;99.90;;;;;;5065339;28;20194;-75
2022/10/27 00:04:46;;;;;;;3.88;1.75;;;16.90;99.90;;;;;;5070060;28;20214;-76
2022/10/27 00:07:15;;;;;;;3.55;1.95;;;16.90;99.90;;;;;;5067379;28;20667;-76
2022/10/27 00:09:42;;;;;;;4.65;2.08;;;16.90;99.90;;;;;;5066809;28;20194;-75
2022/10/27 00:12:10;;;;;;;5.82;2.47;;;16.90;99.90;;;;;;5068481;28;20205;-75
2022/10/27 00:14:37;;;;;;;5.13;2.20;;;16.80;99.90;;;;;;5067315;28;20226;-75
2022/10/27 00:17:05;;;;;;;3.25;2.05;;;16.70;99.90;;;;;;5062074;28;20182;-75
2022/10/27 00:19:33;;;;;;;3.92;2.22;;;16.70;99.90;;;;;;5070749;28;20209;-76
2022/10/27 00:22:00;;;;;;;5.70;2.92;;;16.70;99.90;;;;;;5068864;28;20256;-75
2022/10/27 00:24:29;;;;;;;4.47;2.15;;;16.60;99.90;;;;;;5065685;28;20226;-75
2022/10/27 00:26:56;;;;;;;3.03;2.00;;;16.60;99.90;;;;;;5069807;28;20770;-75
2022/10/27 00:29:24;;;;;;;6.28;2.25;;;16.60;99.90;;;;;;5068371;28;20201;-75
2022/10/27 00:31:51;;;;;;;4.43;2.13;;;16.60;99.90;;;;;;5063178;28;20201;-75
2022/10/27 00:34:19;;;;;;;3.55;1.85;;;16.60;99.90;;;;;;5068130;28;20225;-75
2022/10/27 00:36:46;;;;;;;3.90;1.95;;;16.60;99.90;;;;;;5063853;28;20208;-75
2022/10/27 00:39:13;;;;;;;5.80;2.13;;;16.60;99.90;;;;;;5066479;28;20205;-75
2022/10/27 00:41:43;;;;;;;4.25;2.40;;;16.60;99.90;;;;;;5065229;28;20205;-75
2022/10/27 00:44:33;;;;;;;4.13;2.28;;;16.60;99.90;;;;;;5065479;28;20225;-75
2022/10/27 00:47:04;;;;;;;4.53;2.03;;;16.60;99.90;;;;;;5070702;28;20209;-76
2022/10/27 00:49:36;;;;;;;4.88;2.13;;;16.60;99.90;;;;;;5067644;28;20763;-75
2022/10/27 00:52:07;;;;;;;3.50;2.20;;;16.60;99.90;;;;;;5067447;28;20207;-75
2022/10/27 00:54:39;;;;;;;3.53;2.03;;;16.50;99.90;;;;;;5069829;28;20697;-75
2022/10/27 00:57:10;;;;;;;6.80;2.40;;;16.50;99.90;;;;;;5068341;28;20204;-75
2022/10/27 00:59:38;;;;;;;3.20;2.03;;;16.50;99.90;;;;;;5066371;28;20193;-75
2022/10/27 01:02:07;;;;;;;6.97;2.05;;;16.50;99.90;;;;;;5069161;28;20193;-75
2022/10/27 01:04:39;;;;;;;2.58;2.15;;;16.50;99.90;;;;;;5069391;28;20709;-75
2022/10/27 01:07:06;;;;;;;3.50;2.10;;;16.40;99.90;;;;;;5067914;28;20673;-75
2022/10/27 01:09:38;;;;;;;9.68;2.80;;;16.50;99.90;;;;;;5065519;28;20198;-75
2022/10/27 01:12:05;;;;;;;4.18;2.38;;;16.50;99.90;;;;;;5063878;28;20201;-75
2022/10/27 01:14:34;;;;;;;3.42;2.22;;;16.50;99.90;;;;;;5066924;28;20221;-75
2022/10/27 01:17:13;;;;;;;4.07;1.95;;;16.40;99.90;;;;;;5063129;28;20202;-75
2022/10/27 01:20:05;;;;;;;5.20;2.10;;;16.50;99.90;;;;;;5064339;28;20208;-75
2022/10/27 01:22:39;;;;;;;6.57;2.17;;;16.50;99.90;;;;;;5063468;28;20232;-75
2022/10/27 01:25:25;;;;;;;2.97;2.10;;;16.40;99.90;;;;;;5066781;28;20205;-75
2022/10/27 01:28:22;;;;;;;4.35;2.28;;;16.40;99.90;;;;;;5068233;28;20205;-75
2022/10/27 01:31:03;;;;;;;4.35;2.10;;;16.40;99.90;;;;;;5059231;28;20205;-76
2022/10/27 01:33:38;;;;;;;3.78;1.90;;;16.40;99.90;;;;;;5065980;28;20228;-75
2022/10/27 01:36:14;;;;;;;4.50;2.17;;;16.40;99.90;;;;;;5063633;28;20192;-75
2022/10/27 01:38:47;;;;;;;6.28;2.50;;;16.40;99.90;;;;;;5063158;28;20200;-75
2022/10/27 01:41:22;;;;;;;5.88;2.03;;;16.40;99.90;;;;;;5061729;28;20194;-75
2022/10/27 01:43:57;;;;;;;3.13;2.33;;;16.40;99.90;;;;;;5066010;28;20504;-75
2022/10/27 01:46:26;;;;;;;6.38;2.47;;;16.40;99.90;;;;;;5065770;28;20208;-75
2022/10/27 01:48:55;;;;;;;5.35;2.35;;;16.40;99.90;;;;;;5066048;28;20222;-75
2022/10/27 01:51:22;;;;;;;4.25;2.08;;;16.30;99.90;;;;;;5066306;28;20209;-76
2022/10/27 01:53:51;;;;;;;8.63;2.20;;;16.30;99.90;;;;;;5068269;28;20229;-75
2022/10/27 01:56:43;;;;;;;7.13;2.30;;;16.30;99.90;;;;;;5063242;28;20197;-75
2022/10/27 01:59:21;;;;;;;3.35;1.75;;;16.30;99.90;;;;;;5067939;28;20185;-75
2022/10/27 02:01:59;;;;;;;3.70;2.05;;;16.30;99.90;;;;;;5066296;28;20201;-75
2022/10/27 02:04:34;;;;;;;3.70;2.17;;;16.30;99.90;;;;;;5064268;28;20582;-75
2022/10/27 02:07:10;;;;;;;2.30;1.88;;;16.30;99.90;;;;;;5067411;28;20198;-75
2022/10/27 02:09:43;;;;;;;3.80;2.13;;;16.20;99.90;;;;;;5082012;28;20216;-75
2022/10/27 02:12:18;;;;;;;3.13;2.00;;;16.20;99.90;;;;;;5064369;28;20198;-75
2022/10/27 02:14:49;;;;;;;3.25;1.80;;;16.10;99.90;;;;;;5068999;28;20227;-75
2022/10/27 02:17:21;;;;;;;3.90;2.05;;;16.10;99.90;;;;;;5065806;28;20205;-75
2022/10/27 02:19:50;;;;;;;5.80;2.47;;;16.10;99.90;;;;;;5060799;28;20190;-75
2022/10/27 02:22:18;;;;;;;5.70;2.38;;;16.10;99.90;;;;;;5070690;28;20200;-75
2022/10/27 02:24:46;;;;;;;3.42;1.98;;;16.10;99.90;;;;;;5067505;28;20691;-75
2022/10/27 02:27:21;;;;;;;3.83;1.95;;;16.00;99.90;;;;;;5067935;28;20197;-75
2022/10/27 02:29:50;;;;;;;5.13;2.05;;;16.10;99.90;;;;;;5064655;28;20228;-75
2022/10/27 02:32:37;;;;;;;5.10;2.40;;;16.10;99.90;;;;;;5070772;28;20290;-75
2022/10/27 02:35:05;;;;;;;7.10;2.80;;;16.00;99.90;;;;;;5068895;28;20197;-75
2022/10/27 02:37:37;;;;;;;4.90;2.47;;;16.00;99.90;;;;;;5065319;28;20212;-76
2022/10/27 02:40:05;;;;;;;3.70;2.38;;;16.00;99.90;;;;;;5068381;28;20194;-75
2022/10/27 02:42:33;;;;;;;4.53;2.60;;;15.90;99.90;;;;;;5066873;28;20213;-75
2022/10/27 02:45:00;;;;;;;4.32;2.00;;;15.90;99.90;;;;;;5066747;28;20579;-75
2022/10/27 02:47:28;;;;;;;3.72;2.10;;;15.90;99.90;;;;;;5063323;28;20678;-75
2022/10/27 02:49:56;;;;;;;2.92;1.63;;;15.90;99.90;;;;;;5063083;28;20237;-75
2022/10/27 02:52:24;;;;;;;3.85;2.17;;;16.00;99.90;;;;;;5071231;28;20198;-75
2022/10/27 02:54:51;;;;;;;5.72;2.00;;;16.00;99.90;;;;;;5064150;28;20233;-75
2022/10/27 02:57:19;;;;;;;4.63;2.15;;;16.00;99.90;;;;;;5063511;28;20202;-75
2022/10/27 02:59:47;;;;;;;5.57;2.28;;;16.00;99.90;;;;;;5066974;28;20197;-75
2022/10/27 03:02:14;;;;;;;2.20;1.60;;;15.90;99.90;;;;;;5065810;28;20682;-75
2022/10/27 03:04:41;;;;;;;3.53;1.98;;;15.90;99.90;;;;;;5062916;28;20218;-75
2022/10/27 03:07:10;;;;;;;3.63;2.45;;;15.90;99.90;;;;;;5063543;28;20204;-75
2022/10/27 03:09:37;;;;;;;5.15;2.40;;;15.90;99.90;;;;;;5062488;28;20232;-75
2022/10/27 03:12:05;;;;;;;4.53;2.03;;;15.90;99.90;;;;;;5067612;28;20212;-76
2022/10/27 03:14:33;;;;;;;5.15;2.35;;;15.90;99.90;;;;;;5055620;28;20218;-75
2022/10/27 03:17:00;;;;;;;2.92;2.30;;;15.90;99.90;;;;;;5057366;28;20647;-75
2022/10/27 03:19:28;;;;;;;5.55;1.88;;;15.90;99.90;;;;;;5067290;28;20186;-75
2022/10/27 03:21:55;;;;;;;2.20;1.80;;;15.80;99.90;;;;;;5067506;28;20209;-75
2022/10/27 03:24:24;;;;;;;5.50;2.15;;;15.90;99.90;;;;;;5066954;28;20217;-75
2022/10/27 03:26:51;;;;;;;2.97;1.80;;;15.80;99.90;;;;;;5065167;28;20201;-75
2022/10/27 03:29:19;;;;;;;3.35;1.90;;;15.70;99.90;;;;;;5063508;28;20292;-75
2022/10/27 03:31:46;;;;;;;5.25;2.25;;;15.70;99.90;;;;;;5070507;28;20205;-75
2022/10/27 03:34:13;;;;;;;3.95;1.98;;;15.60;99.90;;;;;;5068307;28;20233;-75
2022/10/27 03:36:41;;;;;;;4.18;2.47;;;15.60;99.90;;;;;;5065932;28;20196;-75
2022/10/27 03:39:08;;;;;;;5.50;2.20;;;15.50;99.90;;;;;;5066491;28;20194;-75
2022/10/27 03:41:37;;;;;;;4.47;1.80;;;15.50;99.90;;;;;;5065184;28;20208;-75
2022/10/27 03:44:05;;;;;;;3.30;2.22;;;15.60;99.90;;;;;;5062340;28;20217;-75
2022/10/27 03:46:32;;;;;;;2.92;2.10;;;15.60;99.90;;;;;;5072967;28;20198;-75
2022/10/27 03:49:00;;;;;;;4.75;1.90;;;15.50;99.90;;;;;;5068459;28;20198;-75
2022/10/27 03:51:27;;;;;;;4.68;1.60;;;15.50;99.90;;;;;;5064255;28;20202;-75
2022/10/27 03:53:56;;;;;;;8.63;2.72;;;15.50;99.90;;;;;;5058623;28;20225;-75
2022/10/27 03:56:24;;;;;;;8.15;2.75;;;15.50;99.90;;;;;;5062619;28;20202;-75
2022/10/27 03:58:52;;;;;;;3.72;1.88;;;15.50;99.90;;;;;;5065660;28;20197;-75
2022/10/27 04:01:20;;;;;;;3.25;2.05;;;15.40;99.90;;;;;;5069814;28;20662;-75
2022/10/27 04:03:50;;;;;;;7.68;2.20;;;15.40;99.90;;;;;;5059647;28;20687;-75
2022/10/27 04:06:17;;;;;;;4.25;2.00;;;15.40;99.90;;;;;;5060787;28;20678;-75
2022/10/27 04:08:44;;;;;;;3.95;1.90;;;15.40;99.90;;;;;;5062927;28;20565;-75
2022/10/27 04:11:12;;;;;;;4.28;2.00;;;15.40;99.90;;;;;;5069152;28;20655;-75
2022/10/27 04:13:40;;;;;;;5.75;1.92;;;15.40;99.90;;;;;;5058322;28;20217;-75
2022/10/27 04:16:13;;;;;;;4.47;1.67;;;15.40;99.90;;;;;;5063034;28;20197;-75
2022/10/27 04:18:43;;;;;;;3.72;2.38;;;15.50;99.90;;;;;;5064464;28;20213;-75
2022/10/27 04:21:10;;;;;;;4.35;1.92;;;15.40;99.90;;;;;;5063836;28;20193;-75
2022/10/27 04:23:38;;;;;;;7.10;1.83;;;15.50;99.90;;;;;;5061028;28;20687;-75
2022/10/27 04:26:05;;;;;;;4.47;1.60;;;15.50;99.90;;;;;;5066654;28;20562;-75
2022/10/27 04:28:33;;;;;;;3.15;1.75;;;15.50;99.90;;;;;;5064574;28;20193;-75
2022/10/27 04:31:00;;;;;;;3.55;1.90;;;15.40;99.90;;;;;;5065115;28;20659;-75
2022/10/27 04:33:29;;;;;;;2.83;2.08;;;15.40;99.90;;;;;;5062598;28;20214;-75
2022/10/27 04:35:56;;;;;;;2.63;1.67;;;15.40;99.90;;;;;;5068090;28;20197;-75
2022/10/27 04:38:24;;;;;;;3.97;2.05;;;15.40;99.90;;;;;;5069941;28;20208;-75
2022/10/27 04:40:51;;;;;;;3.33;1.88;;;15.40;99.90;;;;;;5071624;28;20193;-75
2022/10/27 04:43:19;;;;;;;4.20;1.95;;;15.30;99.90;;;;;;5077145;28;20217;-75
2022/10/27 04:45:46;;;;;;;3.58;1.65;;;15.30;99.90;;;;;;5064206;28;20658;-75
2022/10/27 04:48:14;;;;;;;4.72;1.77;;;15.30;99.90;;;;;;5072952;28;20200;-75
2022/10/27 04:50:43;;;;;;;6.13;2.28;;;15.30;99.90;;;;;;5074244;28;20233;-75
2022/10/27 04:53:10;;;;;;;6.15;1.85;;;15.30;99.90;;;;;;5069371;28;20225;-75
2022/10/27 04:55:37;;;;;;;5.65;2.13;;;15.30;99.90;;;;;;5069714;28;20651;-75
2022/10/27 04:58:08;;;;;;;3.72;2.10;;;15.30;99.90;;;;;;5072533;28;20199;-75
2022/10/27 05:00:35;;;;;;;4.63;1.83;;;15.30;99.90;;;;;;5066401;28;20197;-76
2022/10/27 05:03:03;;;;;;;4.32;1.83;;;15.20;99.90;;;;;;5072792;28;20225;-75
2022/10/27 05:05:30;;;;;;;5.55;2.38;;;15.30;99.90;;;;;;5069925;28;20206;-75
2022/10/27 05:08:00;;;;;;;5.28;2.47;;;15.30;99.90;;;;;;5068426;28;20190;-75
2022/10/27 05:10:29;;;;;;;2.30;1.65;;;15.30;99.90;;;;;;5084492;28;20213;-75
2022/10/27 05:12:56;;;;;;;3.00;1.73;;;15.20;99.90;;;;;;5075266;28;20213;-75
2022/10/27 05:15:24;;;;;;;6.03;1.60;;;15.30;99.90;;;;;;5068125;28;20206;-75
2022/10/27 05:17:51;;;;;;;5.05;1.70;;;15.20;99.90;;;;;;5074825;28;20201;-75
2022/10/27 05:20:19;;;;;;;3.83;1.75;;;15.20;99.90;;;;;;5077802;28;20193;-75
2022/10/27 05:22:47;;;;;;;5.00;1.70;;;15.30;99.90;;;;;;5071843;28;20205;-75
2022/10/27 05:25:16;;;;;;;4.15;2.28;;;15.20;99.90;;;;;;5068260;28;20554;-75
2022/10/27 05:27:43;;;;;;;4.07;2.08;;;15.30;99.90;;;;;;5060475;28;20195;-75
2022/10/27 05:30:12;;;;;;;2.83;1.95;;;15.30;99.90;;;;;;5063437;28;20463;-75
2022/10/27 05:32:39;;;;;;;4.95;1.77;;;15.30;99.90;;;;;;5065057;28;20205;-75
2022/10/27 05:35:22;;;;;;;4.38;2.08;;;15.30;99.90;;;;;;5070191;28;20194;-75
2022/10/27 05:37:50;;;;;;;2.75;1.48;;;15.30;99.90;;;;;;5064172;28;20204;-75
2022/10/27 05:40:23;;;;;;;3.17;1.67;;;15.30;99.90;;;;;;5065164;28;20194;-75
2022/10/27 05:42:52;;;;;;;2.88;1.77;;;15.30;99.90;;;;;;5066083;28;20198;-75
2022/10/27 05:45:27;;;;;;;5.70;1.73;;;15.30;99.90;;;;;;5068278;28;20185;-75
2022/10/27 05:48:01;;;;;;;3.75;1.67;;;15.30;99.90;;;;;;5066878;28;20204;-75
2022/10/27 05:50:29;;;;;;;2.70;1.90;;;15.30;99.90;;;;;;5062577;28;20210;-75
2022/10/27 05:52:56;;;;;;;3.90;1.77;;;15.40;99.90;;;;;;5068751;28;20229;-75
2022/10/27 05:55:47;;;;;;;3.42;1.65;;;15.40;99.90;;;;;;5070886;28;20205;-75
2022/10/27 05:58:14;;;;;;;2.78;1.48;;;15.40;99.90;;;;;;5079906;28;20206;-75
2022/10/27 06:00:44;;;;;;;2.83;1.60;;;15.40;99.90;;;;;;5068992;28;20201;-79
2022/10/27 06:03:19;;;;;;;3.58;1.65;;;15.40;99.90;;;;;;5068410;28;20671;-78
2022/10/27 06:06:01;;;;;;;3.10;1.60;;;15.40;99.90;;;;;;5066626;28;20194;-79
2022/10/27 06:08:55;;;;;;;2.25;1.70;;;15.40;99.90;;;;;;5061846;28;20186;-78
2022/10/27 06:11:55;;;;;;;2.60;1.58;;;15.40;99.90;;;;;;5069508;28;20216;-78
2022/10/27 06:14:27;;;;;;;4.32;2.10;;;15.50;99.90;;;;;;5080051;28;20237;-79
2022/10/27 06:16:55;;;;;;;2.10;1.80;;;15.40;99.90;;;;;;5062930;28;20190;-79
2022/10/27 06:19:37;;;;;;;2.72;1.50;;;15.40;99.90;;;;;;5066996;28;20217;-78
2022/10/27 06:22:05;;;;;;;5.65;2.00;;;15.40;99.90;;;;;;5076254;28;20194;-78
2022/10/27 06:24:32;;;;;;;4.68;1.73;;;15.50;99.90;;;;;;5060643;28;20221;-79
2022/10/27 06:27:01;;;;;;;4.22;1.70;;;15.50;99.90;;;;;;5071090;28;20670;-77
2022/10/27 06:29:28;;;;;;;4.55;1.70;;;15.60;99.90;;;;;;5069769;28;20198;-81
2022/10/27 06:32:11;;;;;;;4.65;1.85;;;15.60;99.90;;;;;;5070159;28;20217;-80
2022/10/27 06:34:39;;;;;;;4.78;1.80;;;15.50;99.90;;;;;;5066397;28;20588;-81
2022/10/27 06:37:07;;;;;;;4.22;1.50;;;15.50;99.90;;;;;;5065534;28;20206;-81
2022/10/27 06:39:35;;;;;;;4.25;1.60;;;15.50;99.90;;;;;;5066206;28;20197;-80
2022/10/27 06:42:04;;;;;;;5.50;1.67;;;15.60;99.90;;;;;;5069505;28;20559;-81
2022/10/27 06:44:32;;;;;;;3.38;1.98;;;15.60;99.90;;;;;;5070107;28;20221;-80
2022/10/27 06:47:00;;;;;;;4.80;1.80;;;15.50;99.90;;;;;;5063991;28;20205;-80
2022/10/27 06:49:27;;;;;;;3.00;1.63;;;15.60;99.90;;;;;;5063673;28;20209;-81
2022/10/27 06:51:54;;;;;;;5.28;1.98;;;15.60;99.90;;;;;;5066591;28;20217;-82
2022/10/27 06:54:22;;;;;;;2.00;1.70;;;15.60;99.90;;;;;;5067665;28;20236;-79
2022/10/27 06:56:52;;;;;;;5.20;1.90;;;15.60;99.90;;;;;;5070401;28;20201;-81
2022/10/27 06:59:21;;;;;;;4.50;1.80;;;15.60;99.90;;;;;;5067492;28;20236;-80
2022/10/27 07:01:48;;;;;;;3.03;2.08;;;15.60;99.90;;;;;;5078325;28;20185;-80
2022/10/27 07:04:16;;;;;;;4.78;1.70;;;15.60;99.90;;;;;;5069469;28;20236;-80
2022/10/27 07:06:43;;;;;;;5.60;2.50;;;15.70;99.90;;;;;;5054452;28;20612;-81
2022/10/27 07:09:11;;;;;;;8.85;2.28;;;15.60;99.90;;;;;;5068711;28;20208;-80
2022/10/27 07:11:41;;;;;;;5.25;2.00;;;15.60;99.90;;;;;;5064986;28;20651;-80
2022/10/27 07:14:09;;;;;;;4.40;2.15;;;15.60;99.90;;;;;;5062465;28;20582;-80
2022/10/27 07:16:37;;;;;;;2.92;1.67;;;15.70;99.90;;;;;;5064828;28;20205;-80
2022/10/27 07:19:05;;;;;;;3.67;1.80;;;15.70;99.90;;;;;;5061815;28;20245;-80
2022/10/27 07:21:32;;;;;;;6.15;2.20;;;15.70;99.90;;;;;;5066306;28;20552;-80
2022/10/27 07:24:00;;;;;;;3.00;1.50;;;15.80;99.90;;;;;;5064926;28;20225;-79
2022/10/27 07:26:27;;;;;;;3.78;2.13;;;15.90;99.90;;;;;;5059858;28;20189;-79
2022/10/27 07:28:54;;;;;;;2.85;1.77;;;15.90;99.90;;;;;;5070430;28;20205;-79
2022/10/27 07:31:31;;;;;;;3.05;1.95;;;15.90;99.90;;;;;;5062519;28;20233;-80
2022/10/27 07:34:02;;;;;;;4.20;1.50;;;16.00;99.90;;;;;;5066990;28;20712;-78
2022/10/27 07:36:29;;;;;;;4.20;1.63;;;16.10;99.90;;;;;;5072031;28;20200;-78
2022/10/27 07:38:57;;;;;;;28.75;9.10;;;16.50;99.90;;;;;;5084656;28;20194;-79
2022/10/27 07:41:24;;;;;;;5.95;2.20;;;16.90;99.90;;;;;;5068748;28;20651;-80
2022/10/27 07:43:52;;;;;;;3.78;1.60;;;16.80;99.90;;;;;;5065258;28;20228;-79
2022/10/27 07:46:19;;;;;;;3.10;2.00;;;16.50;99.90;;;;;;5060529;28;20202;-78
2022/10/27 07:48:47;;;;;;;4.57;1.75;;;16.40;99.90;;;;;;5065290;28;20201;-78
2022/10/27 07:51:26;;;;;;;3.85;1.90;;;16.40;99.90;;;;;;5068666;28;20216;-78
2022/10/27 07:53:53;;;;;;;5.28;2.03;;;16.40;99.90;;;;;;5054455;28;20226;-78
2022/10/27 07:56:21;;;;;;;3.17;1.85;;;16.50;99.90;;;;;;5057772;28;20655;-78
2022/10/27 07:59:11;;;;;;;6.28;1.90;;;16.50;99.90;;;;;;5073960;28;20201;-78
2022/10/27 08:01:39;;;;;;;2.85;1.40;;;16.60;99.90;;;;;;5079317;28;20201;-80
2022/10/27 08:04:06;;;;;;;4.30;1.55;;;16.70;99.90;;;;;;5056371;28;20228;-80
2022/10/27 08:06:35;;;;;;;6.40;1.80;;;16.80;99.90;;;;;;5064599;28;20205;-80
2022/10/27 08:09:02;;;;;;;1.65;1.42;;;16.90;99.90;;;;;;5067260;28;20205;-80
2022/10/27 08:11:29;;;;;;;5.47;1.58;;;16.90;99.90;;;;;;5073463;28;20229;-80
2022/10/27 08:13:57;;;;;;;2.60;1.27;;;16.90;99.90;;;;;;5069473;28;20226;-80
2022/10/27 08:16:24;;;;;;;6.07;1.63;;;16.90;99.90;;;;;;5069218;28;20643;-80
2022/10/27 08:18:52;;;;;;;3.03;1.33;;;17.00;99.90;;;;;;5072086;28;20202;-80
2022/10/27 08:21:19;;;;;;;2.72;1.40;;;17.00;99.90;;;;;;5065304;28;20559;-80
2022/10/27 08:23:48;;;;;;;1.90;1.23;;;17.10;99.90;;;;;;5076074;28;20205;-80
2022/10/27 08:26:15;;;;;;;2.80;1.10;;;17.20;99.90;;;;;;5074844;28;20197;-80
2022/10/27 08:28:43;;;;;;;1.98;1.17;;;17.20;99.90;;;;;;5074344;28;20202;-79
2022/10/27 08:31:10;;;;;;;1.88;1.15;;;17.30;99.90;;;;;;5071254;28;20222;-80
2022/10/27 08:33:38;;;;;;;5.53;1.40;;;17.40;99.90;;;;;;5063906;28;20218;-79
2022/10/27 08:36:05;;;;;;;2.22;1.00;;;17.50;99.90;;;;;;5066608;28;20204;-79
2022/10/27 08:38:34;;;;;;;1.90;1.25;;;17.60;99.90;;;;;;5072851;28;20193;-79
2022/10/27 08:41:24;;;;;;;2.92;1.13;;;17.60;99.90;;;;;;5072362;28;20187;-80
2022/10/27 08:44:13;;;;;;;4.10;1.35;;;17.80;99.90;;;;;;5088833;28;20225;-79
2022/10/27 08:46:44;;;;;;;3.92;1.10;;;17.80;99.90;;;;;;5060564;28;20205;-80
2022/10/27 08:49:26;;;;;;;5.72;1.48;;;18.00;99.90;;;;;;5076088;28;20194;-80
2022/10/27 08:51:57;;;;;;;5.03;1.08;;;18.10;99.90;;;;;;5062809;28;20214;-79
2022/10/27 08:54:27;;;;;;;1.75;0.80;;;18.10;99.90;;;;;;5068101;28;20238;-79
2022/10/27 08:56:58;;;;;;;2.03;0.90;;;18.20;99.90;;;;;;5064091;28;20556;-79
2022/10/27 08:59:30;;;;;;;4.30;1.40;;;18.40;99.90;;;;;;5059403;28;20202;-80
2022/10/27 09:02:08;;;;;;;2.85;1.15;;;18.50;99.90;;;;;;5067369;28;20194;-80
2022/10/27 09:04:56;;;;;;;2.75;1.10;;;18.50;99.90;;;;;;5070086;28;20228;-80
2022/10/27 09:07:30;;;;;;;2.05;1.00;;;18.60;99.90;;;;;;5066931;28;20202;-80
2022/10/27 09:10:02;;;;;;;1.88;0.80;;;18.70;99.90;;;;;;5067071;28;20263;-79
2022/10/27 09:13:03;;;;;;;4.20;1.30;;;18.80;99.90;;;;;;5072146;28;20241;-79
2022/10/27 09:15:38;;;;;;;2.92;1.02;;;18.90;99.90;;;;;;5065649;28;20209;-80
2022/10/27 09:18:11;;;;;;;3.95;1.08;;;19.00;99.90;;;;;;5070915;28;20543;-80
2022/10/27 09:20:44;;;;;;;4.05;1.10;;;19.10;99.90;;;;;;5063899;28;20205;-79
2022/10/27 09:23:15;;;;;;;2.38;0.77;;;19.10;99.90;;;;;;5068806;28;20220;-80
2022/10/27 09:25:46;;;;;;;1.77;0.98;;;19.20;99.90;;;;;;5057195;28;20206;-80
2022/10/27 09:28:21;;;;;;;2.53;0.90;;;19.20;99.90;;;;;;5074369;28;20190;-79
2022/10/27 09:30:51;;;;;;;2.53;0.80;;;19.30;99.90;;;;;;5062455;28;20197;-80
2022/10/27 09:33:21;;;;;;;2.40;0.70;;;19.40;99.90;;;;;;5065192;28;20234;-79
2022/10/27 09:35:51;;;;;;;2.08;0.80;;;19.50;99.90;;;;;;5072822;28;20206;-80
2022/10/27 09:38:27;;;;;;;2.13;0.80;;;19.50;99.90;;;;;;5072616;28;20690;-79
2022/10/27 09:40:55;;;;;;;3.53;0.95;;;19.60;99.90;;;;;;5056177;28;20198;-80
2022/10/27 09:43:24;;;;;;;2.47;1.00;;;19.60;99.90;;;;;;5073950;28;20230;-80
2022/10/27 09:45:57;;;;;;;2.38;0.88;;;19.60;99.90;;;;;;5074076;28;20198;-80
2022/10/27 09:48:26;;;;;;;2.75;0.70;;;19.70;99.90;;;;;;5069862;28;20202;-79
2022/10/27 09:50:58;;;;;;;3.30;0.70;;;19.70;99.90;;;;;;5062193;28;20198;-79
2022/10/27 09:53:41;;;;;;;1.63;0.65;;;19.80;99.90;;;;;;5070079;28;20835;-79
2022/10/27 09:56:11;;;;;;;3.92;0.90;;;19.90;99.90;;;;;;5067429;28;20194;-80
2022/10/27 09:58:48;;;;;;;2.22;0.95;;;19.90;99.90;;;;;;5069994;28;20204;-80
2022/10/27 10:01:15;;;;;;;1.52;1.00;;;20.00;99.90;;;;;;5071295;28;20208;-80
2022/10/27 10:04:06;;;;;;;2.72;0.82;;;20.10;99.90;;;;;;5061548;28;20218;-80
2022/10/27 10:06:36;;;;;;;1.50;0.80;;;20.20;99.90;;;;;;5085372;28;20197;-80
2022/10/27 10:09:18;;;;;;;3.13;1.30;;;20.20;99.90;;;;;;5068681;28;20205;-80
2022/10/27 10:11:46;;;;;;;3.10;0.90;;;20.40;99.90;;;;;;5074302;28;20212;-80
2022/10/27 10:14:22;;;;;;;3.08;0.80;;;20.40;99.90;;;;;;5065743;28;20218;-80
2022/10/27 10:16:51;;;;;;;2.83;0.75;;;20.60;99.90;;;;;;5064460;28;20198;-80
2022/10/27 10:19:22;;;;;;;2.13;0.60;;;20.60;99.90;;;;;;5073368;28;20196;-80
2022/10/27 10:21:52;;;;;;;1.73;0.65;;;20.70;99.40;;;;;;5058702;28;20193;-80
2022/10/27 10:24:23;;;;;;;1.88;0.70;;;20.80;99.80;;;;;;5073940;28;20221;-80
2022/10/27 10:26:53;;;;;;;2.00;1.00;;;20.90;99.60;;;;;;5069247;28;20213;-80
2022/10/27 10:29:28;;;;;;;1.85;1.02;;;20.90;99.90;;;;;;5064831;28;20679;-80
2022/10/27 10:32:11;;;;;;;1.98;0.70;;;20.90;99.20;;;;;;5055397;28;20213;-80
2022/10/27 10:34:41;;;;;;;2.05;0.82;;;21.10;99.30;;;;;;5070253;28;20224;-80
2022/10/27 10:37:33;;;;;;;4.78;1.20;;;21.00;99.90;;;;;;5074388;28;20559;-80
2022/10/27 10:40:28;;;;;;;2.08;1.08;;;21.10;99.30;;;;;;5064343;28;20201;-80
2022/10/27 10:43:13;;;;;;;1.98;0.93;;;21.10;99.20;;;;;;5064876;28;20204;-80
2022/10/27 10:45:42;;;;;;;1.83;1.10;;;21.10;99.70;;;;;;5076099;28;20201;-80
2022/10/27 10:48:28;;;;;;;2.08;0.88;;;21.10;99.50;;;;;;5069528;28;20205;-80
2022/10/27 10:50:56;;;;;;;3.78;1.20;;;21.10;99.80;;;;;;5069440;28;20208;-80
2022/10/27 10:53:30;;;;;;;2.58;1.30;;;21.20;99.90;;;;;;5065445;28;20226;-80
2022/10/27 10:56:01;;;;;;;2.45;1.17;;;21.20;99.90;;;;;;5075250;28;20205;-80
2022/10/27 10:58:32;;;;;;;3.25;1.27;;;21.40;99.90;;;;;;5072127;28;20193;-80
2022/10/27 11:01:04;;;;;;;4.15;1.27;;;21.60;99.00;;;;;;5069071;28;20201;-80
2022/10/27 11:03:35;;;;;;;5.43;1.05;;;21.60;99.70;;;;;;5068514;28;20216;-80
2022/10/27 11:06:05;;;;;;;2.03;1.20;;;21.70;98.60;;;;;;5069352;28;20199;-81
2022/10/27 11:08:38;;;;;;;6.93;1.60;;;21.80;99.20;;;;;;5063501;28;20213;-81
2022/10/27 11:11:13;;;;;;;2.10;1.00;;;22.00;99.90;;;;;;5074164;28;20218;-81
2022/10/27 11:13:45;;;;;;;3.08;1.45;;;22.00;99.40;;;;;;5062717;28;20217;-80
2022/10/27 11:16:14;;;;;;;6.38;1.85;;;21.90;98.80;;;;;;5065498;28;20194;-80
2022/10/27 11:18:49;;;;;;;3.45;1.42;;;21.90;98.60;;;;;;5068156;28;20198;-80
2022/10/27 11:21:28;;;;;;;5.32;1.60;;;21.80;99.00;;;;;;5084480;28;20198;-80
2022/10/27 11:23:59;;;;;;;3.47;1.40;;;21.90;98.30;;;;;;5067280;28;20687;-79
2022/10/27 11:26:32;;;;;;;3.50;1.17;;;22.10;98.00;;;;;;5072017;28;20194;-79
2022/10/27 11:29:16;;;;;;;4.93;1.40;;;22.20;98.00;;;;;;5069712;28;20201;-79
2022/10/27 11:32:02;;;;;;;3.50;1.77;;;22.30;98.10;;;;;;5009444;28;20222;-80
2022/10/27 11:34:38;;;;;;;2.55;1.40;;;22.30;98.70;;;;;;5030277;28;20226;-81
2022/10/27 11:37:10;;;;;;;4.00;1.60;;;22.50;97.80;;;;;;5029822;28;20205;-80
2022/10/27 11:39:44;;;;;;;6.78;1.48;;;22.50;97.80;;;;;;5030998;28;20199;-80
2022/10/27 11:42:21;;;;;;;5.88;2.15;;;22.50;97.30;;;;;;5031059;28;20209;-80
2022/10/27 11:45:02;;;;;;;5.53;1.80;;;22.60;96.60;;;;;;5033431;28;20230;-80
2022/10/27 11:47:36;;;;;;;4.78;2.20;;;22.70;97.10;;;;;;5034233;28;20696;-80
2022/10/27 11:50:11;;;;;;;5.85;1.90;;;22.80;96.70;;;;;;5036145;28;20191;-81
2022/10/27 11:52:42;;;;;;;5.32;2.00;;;22.80;96.60;;;;;;5031362;28;20222;-82
2022/10/27 11:55:15;;;;;;;3.08;1.73;;;22.90;96.30;;;;;;5027607;28;20195;-82
2022/10/27 11:57:53;;;;;;;8.35;1.70;;;22.90;95.80;;;;;;5032300;28;20656;-80
2022/10/27 12:00:25;;;;;;;1.55;1.45;;;22.90;95.90;;;;;;5033451;28;20196;-80
2022/10/27 12:03:20;;;;;;;4.45;1.45;;;22.90;96.20;;;;;;5030515;28;20204;-79
2022/10/27 12:05:53;;;;;;;9.98;6.35;;;22.90;96.60;;;;;;5037269;28;20194;-79
2022/10/27 12:08:35;;;;;;;6.40;4.40;;;22.70;96.30;;;;;;5033646;28;20199;-80
2022/10/27 12:11:19;;;;;;;3.38;2.42;;;22.70;96.10;;;;;;5031434;28;20206;-80
2022/10/27 12:13:56;;;;;;;4.80;2.67;;;22.80;95.80;;;;;;5040870;28;20231;-79
2022/10/27 12:16:29;;;;;;;4.28;1.80;;;22.80;95.80;;;;;;5028408;28;20218;-79
2022/10/27 12:19:06;;;;;;;4.63;2.00;;;22.90;95.30;;;;;;5033696;28;20195;-79
2022/10/27 12:21:41;;;;;;;4.43;2.25;;;23.00;95.30;;;;;;5035648;28;20217;-82
2022/10/27 12:24:16;;;;;;;4.13;1.83;;;23.10;95.10;;;;;;5036432;28;20581;-81
2022/10/27 12:26:47;;;;;;;3.60;2.15;;;23.30;94.80;;;;;;5034149;28;20668;-82
2022/10/27 12:29:16;;;;;;;3.47;1.83;;;23.20;95.30;;;;;;5037338;28;20202;-81
2022/10/27 12:31:50;;;;;;;5.07;1.90;;;23.10;95.10;;;;;;5032168;28;20203;-81
2022/10/27 12:34:21;;;;;;;6.18;1.77;;;23.20;95.20;;;;;;5040381;28;20215;-81
2022/10/27 12:36:58;;;;;;;3.75;2.00;;;23.30;94.90;;;;;;5036340;28;20198;-81
2022/10/27 12:39:31;;;;;;;2.28;1.40;;;23.30;94.90;;;;;;5032132;28;20214;-81
2022/10/27 12:42:09;;;;;;;3.28;1.80;;;23.10;95.10;;;;;;5035961;28;20203;-81
2022/10/27 12:44:48;;;;;;;3.58;1.92;;;23.20;95.60;;;;;;5031172;28;20215;-81
2022/10/27 12:47:38;;;;;;;7.88;1.80;;;23.60;95.70;;;;;;5034965;28;20193;-82
2022/10/27 12:50:24;;;;;;;2.88;2.10;;;23.40;95.10;;;;;;5031286;28;20195;-81
2022/10/27 12:52:57;;;;;;;6.43;1.52;;;23.30;95.50;;;;;;5028902;28;20210;-81
2022/10/27 12:55:46;;;;;;;3.20;1.55;;;23.80;94.60;;;;;;5044663;23;20194;-81
2022/10/27 12:58:23;;;;;;;3.85;1.60;;;24.00;94.60;;;;;;5050854;28;20206;-82
2022/10/27 13:01:01;;;;;;;3.38;1.33;;;23.80;94.80;;;;;;5060954;28;20206;-83
2022/10/27 13:03:54;;;;;;;2.45;1.33;;;24.20;94.10;;;;;;5030472;28;20203;-82
2022/10/27 13:06:45;;;;;;;3.60;1.35;;;24.10;94.00;;;;;;5026545;28;20216;-82
2022/10/27 13:09:56;;;;;;;4.43;1.48;;;24.20;93.80;;;;;;5034598;28;20556;-82
2022/10/27 13:12:48;;;;;;;3.20;1.73;;;23.80;94.40;;;;;;4967809;28;20201;-82
2022/10/27 13:15:39;;;;;;;3.17;1.40;;;23.80;93.70;;;;;;4984533;28;20203;-82